This is the latest recevied weather packets stored in our database for station/object KG4QXL-2. If no packets are shown the sender has not sent any weather packets the latest 10 day(s).
| Time | Temp. | Humidity | Pressure | Rain* | Wind** | Luminosity | Snow |
|---|---|---|---|---|---|---|---|
| 1777064115 | 24.44° C | 63% | 1001.4 hPa | 0 mm | - | 11 W/m² | - |
| 1777062316 | 22.78° C | 70% | 1001.3 hPa | 0 mm | - | 14 W/m² | - |
| 1777061116 | 22.78° C | 68% | 1001.4 hPa | 0 mm | - | 11 W/m² | - |
| 1777060515 | 23.33° C | 66% | 1001.5 hPa | 0 mm | - | 9 W/m² | - |
| 1777056316 | 26.67° C | 49% | 1002.1 hPa | 0 mm | - | 21 W/m² | - |
| 1777055720 | 26.67° C | 50% | 1002.1 hPa | 0 mm | - | 59 W/m² | - |
| 1777054516 | 26.11° C | 52% | 1002.4 hPa | 0 mm | - | 38 W/m² | - |
| 1777053916 | 25.56° C | 59% | 1002.5 hPa | 0 mm | - | 77 W/m² | - |
| 1777052716 | 25° C | 56% | 1002.9 hPa | 0 mm | - | 22 W/m² | - |
| 1777050936 | 25.56° C | 53% | 1003 hPa | 0 mm | - | 34 W/m² | - |
| 1777049116 | 25° C | 54% | 1003.6 hPa | 0 mm | - | 27 W/m² | - |
| 1777046116 | 23.89° C | 55% | 1003.9 hPa | 0 mm | - | 22 W/m² | - |
| 1777040116 | 22.78° C | 65% | 1004.3 hPa | 0 mm | - | 17 W/m² | - |
| 1777037716 | 20.56° C | 75% | 1004.5 hPa | 0 mm | - | 22 W/m² | - |
| 1777034716 | 17.78° C | 87% | 1004.7 hPa | 0 mm | - | 6 W/m² | - |
| 1777028736 | 13.33° C | 96% | 1004.3 hPa | 0 mm | - | 1 W/m² | - |
| 1777028136 | 13.33° C | 96% | 1004.3 hPa | 0 mm | - | 0 W/m² | - |
| 1777027516 | 12.78° C | 96% | 1004.1 hPa | 0 mm | - | 0 W/m² | - |
| 1777023916 | 13.33° C | 96% | 1003.9 hPa | 0 mm | - | 0 W/m² | - |
| 1777023355 | 13.33° C | 96% | 1003.9 hPa | 0 mm | - | 0 W/m² | - |
| 1777021516 | 13.33° C | 96% | 1003.9 hPa | 0 mm | - | 0 W/m² | - |
| 1777020316 | 13.89° C | 96% | 1004 hPa | 0 mm | - | 0 W/m² | - |
| 1777019716 | 13.89° C | 96% | 1004 hPa | 0 mm | - | 0 W/m² | - |
| 1777017916 | 13.89° C | 96% | 1004.1 hPa | 0 mm | - | 0 W/m² | - |
| 1777016716 | 13.89° C | 96% | 1003.8 hPa | 0 mm | - | 0 W/m² | - |
* Rain latest hour (hover to see other rain measurements)
** Current wind speed in m/s (hover to see current wind gust speed)